Terminal Aerodrome Forecast
Issued by NWS

Home | Current Version | Previous Version | Text Only | Print | Product List | Glossary On
Versions: 1 2 3 4 5 6 7 8 9 10 11 12 13 14 15 16 17 18 19 20
000
FTUS45 KABQ 291146
TAFLVS
TAF
KLVS 291146Z 2912/3012 02013KT 2SM -SN BR OVC015
      TEMPO 2912/2915 3/4SM -SN BR OVC007
     FM291500 01018G28KT 2SM -SN BR OVC007
     FM292000 01015KT 5SM -SN BR BKN009 OVC019
     FM300000 36013KT P6SM VCSH BKN030
     FM300700 28010KT P6SM BKN035 OVC100=

USA.gov is the U.S. government's official web portal to all federal, state and local government web resources and services.